createdAt,value
2019-03-20T00:02:19.398Z,47.95
2019-03-20T00:04:51.416Z,48.25
2019-03-20T00:07:24.076Z,48.70
2019-03-20T00:09:56.039Z,50.12
2019-03-20T00:12:28.196Z,50.40
2019-03-20T00:15:00.545Z,50.83
2019-03-20T00:17:32.618Z,52.25
2019-03-20T00:20:04.965Z,51.33
2019-03-20T00:22:37.767Z,52.90
2019-03-20T00:25:12.582Z,53.55
2019-03-20T00:27:44.934Z,53.50
2019-03-20T00:30:19.819Z,53.25
2019-03-20T00:32:52.399Z,55.75
2019-03-20T00:35:28.097Z,56.77
2019-03-20T00:38:00.515Z,59.27
2019-03-20T00:40:32.663Z,56.63
2019-03-20T00:43:04.832Z,55.92
2019-03-20T00:45:37.637Z,57.50
2019-03-20T00:48:09.676Z,56.90
2019-03-20T00:50:41.827Z,58.13
2019-03-20T00:53:14.500Z,59.08
2019-03-20T00:55:46.826Z,58.48
2019-03-20T00:58:19.078Z,56.95
2019-03-20T01:00:51.794Z,56.37
2019-03-20T01:03:23.919Z,61.20
2019-03-20T01:05:57.093Z,58.95
2019-03-20T01:08:29.488Z,60.85
2019-03-20T01:11:01.714Z,63.38
2019-03-20T01:13:33.831Z,60.83
2019-03-20T01:16:06.002Z,60.48
2019-03-20T01:18:37.925Z,58.95
2019-03-20T01:21:09.792Z,62.10
2019-03-20T01:23:43.352Z,61.10
2019-03-20T01:26:15.399Z,64.85
2019-03-20T01:28:47.481Z,60.63
2019-03-20T01:31:19.591Z,62.50
2019-03-20T01:33:52.048Z,62.73
2019-03-20T01:36:25.296Z,62.73
2019-03-20T01:38:57.804Z,63.87
2019-03-20T01:41:37.645Z,61.35
2019-03-20T01:44:06.614Z,62.95
2019-03-20T01:46:39.860Z,61.00
2019-03-20T01:49:12.415Z,61.58
2019-03-20T01:51:44.466Z,61.68
2019-03-20T01:54:16.655Z,61.23
2019-03-20T01:56:52.041Z,60.10
2019-03-20T01:59:27.762Z,61.55
2019-03-20T02:02:00.738Z,60.03
2019-03-20T02:05:05.078Z,58.90
2019-03-20T02:07:37.676Z,58.73
2019-03-20T02:10:13.127Z,60.52
2019-03-20T02:12:51.176Z,59.63
2019-03-20T02:15:57.195Z,57.60
2019-03-20T02:18:01.267Z,56.48
2019-03-20T02:20:33.508Z,55.40
2019-03-20T02:23:05.834Z,52.35
2019-03-20T02:25:37.883Z,53.30
2019-03-20T02:28:10.147Z,54.95
2019-03-20T02:30:42.927Z,51.48
2019-03-20T02:33:18.384Z,52.78
2019-03-20T02:35:53.225Z,50.17
2019-03-20T02:38:38.351Z,53.15
2019-03-20T02:41:12.905Z,52.33
2019-03-20T02:43:45.381Z,51.75
2019-03-20T02:46:17.745Z,53.28
2019-03-20T02:48:49.944Z,52.15
2019-03-20T02:51:22.508Z,52.55
2019-03-20T02:54:13.754Z,50.60
2019-03-20T02:56:45.666Z,48.65
2019-03-20T02:59:36.931Z,47.75
2019-03-20T03:02:12.250Z,47.38
2019-03-20T03:04:44.340Z,46.53
2019-03-20T03:07:18.897Z,48.58
2019-03-20T03:09:57.187Z,48.60
2019-03-20T03:12:29.291Z,46.08
2019-03-20T03:15:04.691Z,45.90
2019-03-20T03:17:56.551Z,45.38
2019-03-20T03:20:31.632Z,46.23
2019-03-20T03:23:03.890Z,46.25
2019-03-20T03:25:36.148Z,45.80
2019-03-20T03:28:08.434Z,46.60
2019-03-20T03:30:43.431Z,47.33
2019-03-20T03:33:15.842Z,45.58
2019-03-20T03:35:48.029Z,44.70
2019-03-20T03:38:20.836Z,47.08
2019-03-20T03:40:53.724Z,45.90
2019-03-20T03:43:26.195Z,47.48
2019-03-20T03:46:01.131Z,48.87
2019-03-20T03:48:33.220Z,45.10
2019-03-20T03:51:05.626Z,44.85
2019-03-20T03:53:40.174Z,44.25
2019-03-20T03:56:11.988Z,42.25
2019-03-20T03:58:44.049Z,45.45
2019-03-20T04:01:17.946Z,44.63
2019-03-20T04:03:50.114Z,45.48
2019-03-20T04:06:35.002Z,44.42
2019-03-20T04:08:57.370Z,47.43
2019-03-20T04:11:32.604Z,40.95
2019-03-20T04:14:13.613Z,38.23
2019-03-20T04:16:58.584Z,38.45
2019-03-20T04:19:30.590Z,42.10
2019-03-20T04:22:02.622Z,39.65
2019-03-20T04:24:34.773Z,39.18
2019-03-20T04:27:11.041Z,38.80
2019-03-20T04:29:43.901Z,37.33
2019-03-20T04:32:16.239Z,39.18
2019-03-20T04:34:48.293Z,38.50
2019-03-20T04:37:21.346Z,37.08
2019-03-20T04:39:53.392Z,37.60
2019-03-20T04:42:26.606Z,37.80
2019-03-20T04:45:00.453Z,38.28
2019-03-20T04:47:32.568Z,37.15
2019-03-20T04:50:13.322Z,36.70
2019-03-20T04:52:45.260Z,36.60
2019-03-20T04:55:17.558Z,37.17
2019-03-20T04:58:08.598Z,38.05
2019-03-20T05:00:41.308Z,38.50
2019-03-20T05:03:13.843Z,36.03
2019-03-20T05:05:46.242Z,35.95
2019-03-20T05:08:18.288Z,37.33
2019-03-20T05:10:50.556Z,37.28
2019-03-20T05:13:24.029Z,35.28
2019-03-20T05:15:56.824Z,35.25
2019-03-20T05:18:29.186Z,36.23
2019-03-20T05:21:01.419Z,34.98
2019-03-20T05:23:33.489Z,34.33
2019-03-20T05:26:05.823Z,34.43
2019-03-20T05:28:47.040Z,34.43
2019-03-20T05:31:19.173Z,33.83
2019-03-20T05:33:51.364Z,34.48
2019-03-20T05:36:42.277Z,34.70
2019-03-20T05:39:15.931Z,34.45
2019-03-20T05:41:48.520Z,33.33
2019-03-20T05:44:21.620Z,32.53
2019-03-20T05:46:57.500Z,34.83
2019-03-20T05:49:29.686Z,36.45
2019-03-20T05:52:02.267Z,33.15
2019-03-20T05:54:34.581Z,33.67
2019-03-20T05:57:06.633Z,33.40
2019-03-20T05:59:38.602Z,33.23
2019-03-20T06:02:10.566Z,34.38
2019-03-20T06:04:44.884Z,34.13
2019-03-20T06:07:21.591Z,34.25
2019-03-20T06:09:50.846Z,35.83
2019-03-20T06:12:23.461Z,34.67
2019-03-20T06:14:55.838Z,33.45
2019-03-20T06:17:27.783Z,34.08
2019-03-20T06:20:00.529Z,33.35
2019-03-20T06:22:32.843Z,31.37
2019-03-20T06:25:06.361Z,33.20
2019-03-20T06:27:38.482Z,33.40
2019-03-20T06:30:20.381Z,32.15
2019-03-20T06:32:47.891Z,31.73
2019-03-20T06:35:23.878Z,30.50
2019-03-20T06:37:58.821Z,30.20
2019-03-20T06:40:45.310Z,29.32
2019-03-20T06:43:21.830Z,29.77
2019-03-20T06:45:56.367Z,27.60
2019-03-20T06:48:29.579Z,26.42
2019-03-20T06:51:01.919Z,28.17
2019-03-20T06:53:33.933Z,28.12
2019-03-20T06:56:05.649Z,26.50
2019-03-20T06:58:37.751Z,25.77
2019-03-20T07:01:30.468Z,25.52
2019-03-20T07:04:06.090Z,27.00
2019-03-20T07:06:41.482Z,28.52
2019-03-20T07:09:17.143Z,26.95
2019-03-20T07:11:50.265Z,27.17
2019-03-20T07:14:23.399Z,26.27
2019-03-20T07:16:55.482Z,26.30
2019-03-20T07:19:27.721Z,25.48
2019-03-20T07:22:04.963Z,27.10
2019-03-20T07:24:37.123Z,24.40
2019-03-20T07:27:09.308Z,26.07
2019-03-20T07:29:41.678Z,25.62
2019-03-20T07:32:14.024Z,25.23
2019-03-20T07:34:46.295Z,24.57
2019-03-20T07:37:18.721Z,25.85
2019-03-20T07:39:50.951Z,25.48
2019-03-20T07:42:23.003Z,25.92
2019-03-20T07:44:56.335Z,25.77
2019-03-20T07:47:56.597Z,25.52
2019-03-20T07:50:29.679Z,26.23
2019-03-20T07:53:02.026Z,25.45
2019-03-20T07:55:34.045Z,23.95
2019-03-20T07:58:06.774Z,25.45
2019-03-20T08:00:39.224Z,24.15
2019-03-20T08:03:11.456Z,24.85
2019-03-20T08:05:43.813Z,24.80
2019-03-20T08:08:18.736Z,24.75
2019-03-20T08:10:52.050Z,25.05
2019-03-20T08:13:24.527Z,24.18
2019-03-20T08:15:56.853Z,25.05
2019-03-20T08:18:30.118Z,25.37
2019-03-20T08:21:02.763Z,26.25
2019-03-20T08:23:35.302Z,24.02
2019-03-20T08:26:07.355Z,25.37
2019-03-20T08:28:40.331Z,25.40
2019-03-20T08:31:12.449Z,25.40
2019-03-20T08:33:45.080Z,25.60
2019-03-20T08:36:17.135Z,25.92
2019-03-20T08:38:49.239Z,26.05
2019-03-20T08:41:22.293Z,26.35
2019-03-20T08:43:54.206Z,25.60
2019-03-20T08:46:47.771Z,28.27
2019-03-20T08:49:20.990Z,26.30
2019-03-20T08:51:53.225Z,28.20
2019-03-20T08:54:25.290Z,27.10
2019-03-20T08:56:57.915Z,27.40
2019-03-20T08:59:30.207Z,28.27
2019-03-20T09:02:02.386Z,26.95
2019-03-20T09:04:36.836Z,26.27
2019-03-20T09:07:10.481Z,26.87
2019-03-20T09:09:44.887Z,26.12
2019-03-20T09:12:17.318Z,27.45
2019-03-20T09:14:49.452Z,26.27
2019-03-20T09:17:21.606Z,26.55
2019-03-20T09:19:54.152Z,25.05
2019-03-20T09:22:26.218Z,26.12
2019-03-20T09:25:09.919Z,24.20
2019-03-20T09:28:08.847Z,27.30
2019-03-20T09:30:40.836Z,26.40
2019-03-20T09:33:12.987Z,25.60
2019-03-20T09:35:45.095Z,30.55
2019-03-20T09:38:17.558Z,24.90
2019-03-20T09:40:51.040Z,25.27
2019-03-20T09:43:23.914Z,25.68
2019-03-20T09:45:56.986Z,25.43
2019-03-20T09:48:30.231Z,26.12
2019-03-20T09:51:02.998Z,25.08
2019-03-20T09:53:35.045Z,24.72
2019-03-20T09:56:08.500Z,26.30
2019-03-20T09:58:41.281Z,25.50
2019-03-20T10:01:13.466Z,25.95
2019-03-20T10:03:45.656Z,26.37
2019-03-20T10:06:17.761Z,26.05
2019-03-20T10:08:53.947Z,25.75
2019-03-20T10:11:23.809Z,25.12
2019-03-20T10:13:55.694Z,25.75
2019-03-20T10:16:27.847Z,26.57
2019-03-20T10:19:00.572Z,25.95
2019-03-20T10:21:37.222Z,26.52
2019-03-20T10:24:09.301Z,26.90
2019-03-20T10:26:50.097Z,28.70
2019-03-20T10:29:41.132Z,28.27
2019-03-20T10:32:14.000Z,28.35
2019-03-20T10:34:46.373Z,27.22
2019-03-20T10:37:19.069Z,28.83
2019-03-20T10:40:15.072Z,25.85
2019-03-20T10:42:47.765Z,26.40
2019-03-20T10:45:20.903Z,26.12
2019-03-20T10:47:55.074Z,26.30
2019-03-20T10:50:29.626Z,26.60
2019-03-20T10:53:15.521Z,26.65
2019-03-20T10:55:48.886Z,26.75
2019-03-20T10:58:20.769Z,26.62
2019-03-20T11:01:00.476Z,27.60
2019-03-20T11:03:33.174Z,27.25
2019-03-20T11:06:05.755Z,25.57
2019-03-20T11:08:37.928Z,26.17
2019-03-20T11:11:10.244Z,25.95
2019-03-20T11:13:51.778Z,26.50
2019-03-20T11:16:24.303Z,28.85
2019-03-20T11:19:08.158Z,28.05
2019-03-20T11:21:40.702Z,28.15
2019-03-20T11:24:16.017Z,28.87
2019-03-20T11:26:51.370Z,29.40
2019-03-20T11:29:44.171Z,30.52
2019-03-20T11:32:19.090Z,30.65
2019-03-20T11:34:50.192Z,29.10
2019-03-20T11:37:22.782Z,28.85
2019-03-20T11:39:56.395Z,30.27
2019-03-20T11:42:29.906Z,30.20
2019-03-20T11:45:01.979Z,28.80
2019-03-20T11:47:34.073Z,29.00
2019-03-20T11:50:08.352Z,30.17
2019-03-20T11:52:41.020Z,30.30
2019-03-20T11:55:13.990Z,30.60
2019-03-20T11:57:46.291Z,29.18
2019-03-20T12:00:20.986Z,29.67
2019-03-20T12:02:54.074Z,28.70
2019-03-20T12:05:26.085Z,29.90
2019-03-20T12:07:58.222Z,30.57
2019-03-20T12:10:32.568Z,31.35
2019-03-20T12:13:04.848Z,37.20
2019-03-20T12:15:36.705Z,31.12
2019-03-20T12:18:09.349Z,33.00
2019-03-20T12:20:47.042Z,31.85
2019-03-20T12:23:19.727Z,31.45
2019-03-20T12:25:51.819Z,32.48
2019-03-20T12:28:24.285Z,30.65
2019-03-20T12:30:56.683Z,31.60
2019-03-20T12:33:31.981Z,32.65
2019-03-20T12:36:04.559Z,33.30
2019-03-20T12:38:36.954Z,32.50
2019-03-20T12:41:09.461Z,33.65
2019-03-20T12:43:42.121Z,35.25
2019-03-20T12:46:15.559Z,36.23
2019-03-20T12:48:47.759Z,34.78
2019-03-20T12:51:19.977Z,33.55
2019-03-20T12:53:52.081Z,34.75
2019-03-20T12:56:25.067Z,32.40
2019-03-20T12:58:57.062Z,33.20
2019-03-20T13:01:29.866Z,32.05
2019-03-20T13:04:12.482Z,31.75
2019-03-20T13:06:44.359Z,31.30
2019-03-20T13:09:21.120Z,32.40
2019-03-20T13:11:53.413Z,32.90
2019-03-20T13:14:25.667Z,33.88
2019-03-20T13:17:07.855Z,34.20
2019-03-20T13:19:39.779Z,33.83
2019-03-20T13:22:11.986Z,31.93
2019-03-20T13:24:44.687Z,32.55
2019-03-20T13:27:16.963Z,32.90
2019-03-20T13:29:49.614Z,34.58
2019-03-20T13:32:22.818Z,34.63
2019-03-20T13:34:55.010Z,36.55
2019-03-20T13:37:47.387Z,37.00
2019-03-20T13:40:19.408Z,37.33
2019-03-20T13:42:51.448Z,38.15
2019-03-20T13:45:26.240Z,38.17
2019-03-20T13:47:58.188Z,39.33
2019-03-20T13:50:30.968Z,39.53
2019-03-20T13:53:03.710Z,40.00
2019-03-20T13:55:35.702Z,41.65
2019-03-20T13:58:08.397Z,40.20
2019-03-20T14:00:40.715Z,40.70
2019-03-20T14:03:16.403Z,41.18
2019-03-20T14:05:48.686Z,40.43
2019-03-20T14:08:20.929Z,40.10
2019-03-20T14:10:52.961Z,40.03
2019-03-20T14:13:25.272Z,40.38
2019-03-20T14:16:06.579Z,40.67
2019-03-20T14:18:39.358Z,40.55
2019-03-20T14:21:11.583Z,40.88
2019-03-20T14:23:43.621Z,41.50
2019-03-20T14:26:15.884Z,39.55
2019-03-20T14:28:50.596Z,40.63
2019-03-20T14:31:22.856Z,39.03
2019-03-20T14:33:55.437Z,41.05
2019-03-20T14:36:27.680Z,42.40
2019-03-20T14:38:59.907Z,44.42
2019-03-20T14:41:32.438Z,43.80
2019-03-20T14:44:04.358Z,45.43
2019-03-20T14:46:36.441Z,42.93
2019-03-20T14:49:11.620Z,42.58
2019-03-20T14:51:44.326Z,41.63
2019-03-20T14:54:16.233Z,41.65
2019-03-20T14:56:48.251Z,44.42
2019-03-20T14:59:33.128Z,43.40
2019-03-20T15:02:05.598Z,42.78
2019-03-20T15:04:37.717Z,41.48
2019-03-20T15:07:10.276Z,42.20
2019-03-20T15:09:42.648Z,44.55
2019-03-20T15:12:14.764Z,42.73
2019-03-20T15:14:46.602Z,43.60
2019-03-20T15:17:18.847Z,41.63
2019-03-20T15:19:51.344Z,42.95
2019-03-20T15:22:23.328Z,43.45
2019-03-20T15:24:55.219Z,42.23
2019-03-20T15:27:27.757Z,43.92
2019-03-20T15:30:02.142Z,43.70
2019-03-20T15:32:35.084Z,43.23
2019-03-20T15:35:08.687Z,43.20
2019-03-20T15:37:42.712Z,44.10
2019-03-20T15:40:18.211Z,42.08
2019-03-20T15:42:50.556Z,42.78
2019-03-20T15:45:22.973Z,43.25
2019-03-20T15:47:54.942Z,42.20
2019-03-20T15:50:29.217Z,44.70
2019-03-20T15:53:01.534Z,44.65
2019-03-20T15:55:37.412Z,44.67
2019-03-20T15:58:10.169Z,43.13
2019-03-20T16:00:44.433Z,45.23
2019-03-20T16:03:19.926Z,45.58
2019-03-20T16:05:51.950Z,43.63
2019-03-20T16:08:24.992Z,46.68
2019-03-20T16:11:06.238Z,46.15
2019-03-20T16:13:31.126Z,45.23
2019-03-20T16:16:03.339Z,44.25
2019-03-20T16:18:35.471Z,45.50
2019-03-20T16:21:07.603Z,45.73
2019-03-20T16:23:39.715Z,49.18
2019-03-20T16:26:12.048Z,47.70
2019-03-20T16:28:44.226Z,49.53
2019-03-20T16:31:19.778Z,47.50
2019-03-20T16:33:51.906Z,49.48
2019-03-20T16:36:30.112Z,51.40
2019-03-20T16:39:14.940Z,51.30
2019-03-20T16:41:55.424Z,51.30
2019-03-20T16:44:27.758Z,51.10
2019-03-20T16:46:59.490Z,48.55
2019-03-20T16:49:32.162Z,48.73
2019-03-20T16:52:04.087Z,49.13
2019-03-20T16:54:35.952Z,50.73
2019-03-20T16:57:08.513Z,51.53
2019-03-20T16:59:40.545Z,50.08
2019-03-20T17:02:15.043Z,48.92
2019-03-20T17:04:47.108Z,49.67
2019-03-20T17:07:19.562Z,50.28
2019-03-20T17:09:53.158Z,49.18
2019-03-20T17:12:25.536Z,50.10
2019-03-20T17:14:57.679Z,48.65
2019-03-20T17:17:29.768Z,48.10
2019-03-20T17:20:02.195Z,48.78
2019-03-20T17:22:41.779Z,49.90
2019-03-20T17:25:11.569Z,49.83
2019-03-20T17:27:43.696Z,47.70
2019-03-20T17:30:21.246Z,48.52
2019-03-20T17:32:53.383Z,49.25
2019-03-20T17:35:25.935Z,47.60
2019-03-20T17:37:57.969Z,47.00
2019-03-20T17:40:31.318Z,47.60
2019-03-20T17:43:04.930Z,47.90
2019-03-20T17:45:37.532Z,50.25
2019-03-20T17:48:10.208Z,47.67
2019-03-20T17:50:42.579Z,46.00
2019-03-20T17:53:15.947Z,48.92
2019-03-20T17:55:48.103Z,47.75
2019-03-20T17:58:20.129Z,48.28
2019-03-20T18:00:54.242Z,46.92
2019-03-20T18:03:27.651Z,47.62
2019-03-20T18:06:00.095Z,47.00
2019-03-20T18:08:32.098Z,47.00
2019-03-20T18:11:04.071Z,46.63
2019-03-20T18:13:36.323Z,46.15
2019-03-20T18:16:08.400Z,45.67
2019-03-20T18:18:40.845Z,46.98
2019-03-20T18:21:13.833Z,48.05
2019-03-20T18:23:45.978Z,46.30
2019-03-20T18:26:17.960Z,45.60
2019-03-20T18:28:50.143Z,45.25
2019-03-20T18:31:22.221Z,46.50
2019-03-20T18:33:54.238Z,45.30
2019-03-20T18:36:26.522Z,48.55
2019-03-20T18:38:58.627Z,49.05
2019-03-20T18:41:31.314Z,46.08
2019-03-20T18:44:03.646Z,46.83
2019-03-20T18:46:35.868Z,47.55
2019-03-20T18:49:07.875Z,48.02
2019-03-20T18:51:40.905Z,45.28
2019-03-20T18:54:13.393Z,43.98
2019-03-20T18:56:45.575Z,45.73
2019-03-20T18:59:17.920Z,49.38
2019-03-20T19:01:50.088Z,47.62
2019-03-20T19:04:23.903Z,49.15
2019-03-20T19:06:56.031Z,46.37
2019-03-20T19:09:28.751Z,47.73
2019-03-20T19:12:08.506Z,47.62
2019-03-20T19:14:37.704Z,47.53
2019-03-20T19:17:09.878Z,46.18
2019-03-20T19:19:42.240Z,45.15
2019-03-20T19:22:14.647Z,45.25
2019-03-20T19:24:46.618Z,46.53
2019-03-20T19:27:18.900Z,46.88
2019-03-20T19:29:51.493Z,45.95
2019-03-20T19:32:23.907Z,46.55
2019-03-20T19:34:55.834Z,46.68
2019-03-20T19:37:28.688Z,46.15
2019-03-20T19:40:01.027Z,46.02
2019-03-20T19:42:33.977Z,45.25
2019-03-20T19:45:08.558Z,46.50
2019-03-20T19:47:40.708Z,46.13
2019-03-20T19:50:16.658Z,47.30
2019-03-20T19:52:48.630Z,46.48
2019-03-20T19:55:21.004Z,44.83
2019-03-20T19:57:53.473Z,46.28
2019-03-20T20:00:28.045Z,46.08
2019-03-20T20:03:00.477Z,47.03
2019-03-20T20:05:33.805Z,47.20
2019-03-20T20:08:06.021Z,48.73
2019-03-20T20:10:38.234Z,46.88
2019-03-20T20:13:10.500Z,50.73
2019-03-20T20:15:42.917Z,51.02
2019-03-20T20:18:34.597Z,52.80
2019-03-20T20:21:07.016Z,52.88
2019-03-20T20:23:39.281Z,51.65
2019-03-20T20:26:11.290Z,48.78
2019-03-20T20:28:53.080Z,49.95
2019-03-20T20:31:28.197Z,49.25
2019-03-20T20:34:00.383Z,47.65
2019-03-20T20:36:32.514Z,46.05
2019-03-20T20:39:05.321Z,44.03
2019-03-20T20:41:38.609Z,44.00
2019-03-20T20:44:10.755Z,43.70
2019-03-20T20:46:43.846Z,42.60
2019-03-20T20:49:16.590Z,41.98
2019-03-20T20:51:48.977Z,40.78
2019-03-20T20:54:21.037Z,43.83
2019-03-20T20:56:53.378Z,42.00
2019-03-20T20:59:25.339Z,40.30
2019-03-20T21:01:57.341Z,40.88
2019-03-20T21:04:29.927Z,42.10
2019-03-20T21:07:03.630Z,41.42
2019-03-20T21:09:36.141Z,42.80
2019-03-20T21:12:08.428Z,41.95
2019-03-20T21:14:40.605Z,43.75
2019-03-20T21:17:16.826Z,45.38
2019-03-20T21:19:49.061Z,42.60
2019-03-20T21:22:24.945Z,41.83
2019-03-20T21:24:57.217Z,42.70
2019-03-20T21:27:33.379Z,42.13
2019-03-20T21:30:09.224Z,41.90
2019-03-20T21:32:44.993Z,41.50
2019-03-20T21:35:20.520Z,41.95
2019-03-20T21:37:56.805Z,42.25
2019-03-20T21:40:28.969Z,41.37
2019-03-20T21:43:07.276Z,43.58
2019-03-20T21:45:43.226Z,43.28
2019-03-20T21:48:15.813Z,43.83
2019-03-20T21:50:52.990Z,42.25
2019-03-20T21:53:29.497Z,43.35
2019-03-20T21:56:05.331Z,43.15
2019-03-20T21:58:41.901Z,43.98
2019-03-20T22:01:17.447Z,44.20
2019-03-20T22:03:49.485Z,43.40
2019-03-20T22:06:25.159Z,41.68
2019-03-20T22:08:58.364Z,41.65
2019-03-20T22:11:33.934Z,44.67
2019-03-20T22:14:10.380Z,40.98
2019-03-20T22:16:46.140Z,41.73
2019-03-20T22:19:22.199Z,41.92
2019-03-20T22:21:58.289Z,40.48
2019-03-20T22:24:34.931Z,43.33
2019-03-20T22:27:10.638Z,43.50
2019-03-20T22:29:44.431Z,43.63
2019-03-20T22:32:19.916Z,42.83
2019-03-20T22:34:56.003Z,44.85
2019-03-20T22:37:28.148Z,44.67
2019-03-20T22:40:04.547Z,45.67
2019-03-20T22:42:40.306Z,45.60
2019-03-20T22:45:16.234Z,45.48
2019-03-20T22:47:52.105Z,45.67
2019-03-20T22:50:27.846Z,44.15
2019-03-20T22:53:03.569Z,46.37
2019-03-20T22:55:40.426Z,44.55
2019-03-20T22:58:16.223Z,46.20
2019-03-20T23:00:52.394Z,45.73
2019-03-20T23:03:28.151Z,46.53
2019-03-20T23:06:00.752Z,46.73
2019-03-20T23:08:32.981Z,48.13
2019-03-20T23:11:07.331Z,51.08
2019-03-20T23:13:41.820Z,49.15
2019-03-20T23:16:17.131Z,50.15
2019-03-20T23:18:49.145Z,48.55
2019-03-20T23:21:21.479Z,49.63
2019-03-20T23:23:54.075Z,48.85
2019-03-20T23:26:26.206Z,47.15
2019-03-20T23:28:58.129Z,43.98
2019-03-20T23:31:30.409Z,48.40
2019-03-20T23:34:02.685Z,48.70
2019-03-20T23:36:34.681Z,50.35
2019-03-20T23:39:08.829Z,49.63
2019-03-20T23:41:40.967Z,50.33
2019-03-20T23:44:12.993Z,51.25
2019-03-20T23:46:48.511Z,55.17
2019-03-20T23:49:24.409Z,50.05
2019-03-20T23:51:58.337Z,50.55
2019-03-20T23:54:34.179Z,49.45
2019-03-20T23:57:06.727Z,48.02
2019-03-20T23:59:38.767Z,48.42
